sensor_id;sensor_type;location;lat;lon;timestamp;pressure;altitude;pressure_sealevel;temperature;humidity
77003;BME280;65939;50.060;14.288;2023-06-22T00:00:11;97540.97;;;20.51;100.00
77003;BME280;65939;50.060;14.288;2023-06-22T00:02:12;97547.88;;;20.52;100.00
77003;BME280;65939;50.060;14.288;2023-06-22T00:04:13;97554.00;;;20.52;100.00
77003;BME280;65939;50.060;14.288;2023-06-22T00:06:13;97554.00;;;20.52;100.00
77003;BME280;65939;50.060;14.288;2023-06-22T00:08:15;97555.66;;;20.53;100.00
77003;BME280;65939;50.060;14.288;2023-06-22T00:10:16;97555.44;;;20.55;100.00
77003;BME280;65939;50.060;14.288;2023-06-22T00:12:16;97558.09;;;20.55;100.00
77003;BME280;65939;50.060;14.288;2023-06-22T00:14:17;97547.28;;;20.56;100.00
77003;BME280;65939;50.060;14.288;2023-06-22T00:16:18;97542.56;;;20.59;100.00
77003;BME280;65939;50.060;14.288;2023-06-22T00:18:18;97540.13;;;20.57;100.00
77003;BME280;65939;50.060;14.288;2023-06-22T00:20:19;97544.63;;;20.56;100.00
77003;BME280;65939;50.060;14.288;2023-06-22T00:22:20;97542.16;;;20.55;100.00
77003;BME280;65939;50.060;14.288;2023-06-22T00:24:28;97551.34;;;20.52;100.00
77003;BME280;65939;50.060;14.288;2023-06-22T00:26:29;97537.50;;;20.50;99.82
77003;BME280;65939;50.060;14.288;2023-06-22T00:28:30;97548.50;;;20.47;99.78
77003;BME280;65939;50.060;14.288;2023-06-22T00:30:32;97547.88;;;20.45;99.69
77003;BME280;65939;50.060;14.288;2023-06-22T00:32:32;97553.66;;;20.42;100.00
77003;BME280;65939;50.060;14.288;2023-06-22T00:34:33;97551.19;;;20.41;100.00
77003;BME280;65939;50.060;14.288;2023-06-22T00:36:34;97549.75;;;20.38;100.00
77003;BME280;65939;50.060;14.288;2023-06-22T00:38:35;97550.78;;;20.37;100.00
77003;BME280;65939;50.060;14.288;2023-06-22T00:40:40;97545.72;;;20.36;100.00
77003;BME280;65939;50.060;14.288;2023-06-22T00:42:41;97546.94;;;20.33;100.00
77003;BME280;65939;50.060;14.288;2023-06-22T00:44:41;97549.81;;;20.31;100.00
77003;BME280;65939;50.060;14.288;2023-06-22T00:46:42;97547.38;;;20.30;100.00
77003;BME280;65939;50.060;14.288;2023-06-22T00:48:43;97548.97;;;20.31;100.00
77003;BME280;65939;50.060;14.288;2023-06-22T00:50:44;97538.59;;;20.29;100.00
77003;BME280;65939;50.060;14.288;2023-06-22T00:52:46;97535.13;;;20.29;100.00
77003;BME280;65939;50.060;14.288;2023-06-22T00:54:48;97534.53;;;20.27;100.00
77003;BME280;65939;50.060;14.288;2023-06-22T00:56:55;97526.97;;;20.24;99.33
77003;BME280;65939;50.060;14.288;2023-06-22T00:58:58;97533.53;;;20.21;100.00
77003;BME280;65939;50.060;14.288;2023-06-22T01:01:00;97528.44;;;20.20;100.00
77003;BME280;65939;50.060;14.288;2023-06-22T01:03:02;97523.56;;;20.17;100.00
77003;BME280;65939;50.060;14.288;2023-06-22T01:05:03;97518.69;;;20.14;100.00
77003;BME280;65939;50.060;14.288;2023-06-22T01:07:31;97526.03;;;20.12;100.00
77003;BME280;65939;50.060;14.288;2023-06-22T01:09:46;97517.47;;;20.09;100.00
77003;BME280;65939;50.060;14.288;2023-06-22T01:11:56;97519.53;;;20.07;100.00
77003;BME280;65939;50.060;14.288;2023-06-22T01:14:12;97514.41;;;20.06;100.00
77003;BME280;65939;50.060;14.288;2023-06-22T01:16:20;97504.84;;;20.05;100.00
77003;BME280;65939;50.060;14.288;2023-06-22T01:18:26;97509.34;;;20.04;100.00
77003;BME280;65939;50.060;14.288;2023-06-22T01:20:32;97514.88;;;20.03;100.00
77003;BME280;65939;50.060;14.288;2023-06-22T01:22:54;97520.34;;;20.01;100.00
77003;BME280;65939;50.060;14.288;2023-06-22T01:29:24;97514.47;;;19.99;100.00
77003;BME280;65939;50.060;14.288;2023-06-22T01:31:29;97510.97;;;19.99;100.00
77003;BME280;65939;50.060;14.288;2023-06-22T01:33:35;97505.28;;;19.95;100.00
77003;BME280;65939;50.060;14.288;2023-06-22T01:35:37;97512.66;;;19.93;100.00
77003;BME280;65939;50.060;14.288;2023-06-22T01:37:38;97519.97;;;19.91;100.00
77003;BME280;65939;50.060;14.288;2023-06-22T01:39:39;97514.09;;;19.89;100.00
77003;BME280;65939;50.060;14.288;2023-06-22T01:41:42;97511.63;;;19.88;100.00
77003;BME280;65939;50.060;14.288;2023-06-22T01:43:45;97502.88;;;19.87;100.00
77003;BME280;65939;50.060;14.288;2023-06-22T01:45:46;97503.91;;;19.86;100.00
77003;BME280;65939;50.060;14.288;2023-06-22T01:47:48;97505.75;;;19.85;100.00
77003;BME280;65939;50.060;14.288;2023-06-22T01:49:49;97504.91;;;19.85;100.00
77003;BME280;65939;50.060;14.288;2023-06-22T01:51:52;97512.66;;;19.87;100.00
77003;BME280;65939;50.060;14.288;2023-06-22T01:53:54;97523.28;;;19.87;100.00
77003;BME280;65939;50.060;14.288;2023-06-22T01:55:56;97522.25;;;19.88;100.00
77003;BME280;65939;50.060;14.288;2023-06-22T01:57:57;97521.25;;;19.89;100.00
77003;BME280;65939;50.060;14.288;2023-06-22T02:00:02;97527.34;;;19.89;100.00
77003;BME280;65939;50.060;14.288;2023-06-22T02:02:07;97528.97;;;19.90;100.00
77003;BME280;65939;50.060;14.288;2023-06-22T02:04:14;97522.63;;;19.91;100.00
77003;BME280;65939;50.060;14.288;2023-06-22T02:06:27;97526.09;;;19.92;100.00
77003;BME280;65939;50.060;14.288;2023-06-22T02:08:52;97518.16;;;19.92;99.91
77003;BME280;65939;50.060;14.288;2023-06-22T02:10:56;97524.28;;;19.92;99.58
77003;BME280;65939;50.060;14.288;2023-06-22T02:12:59;97528.56;;;19.93;99.92
77003;BME280;65939;50.060;14.288;2023-06-22T02:15:01;97522.22;;;19.94;99.51
77003;BME280;65939;50.060;14.288;2023-06-22T02:17:04;97527.34;;;19.96;99.20
77003;BME280;65939;50.060;14.288;2023-06-22T02:19:08;97531.38;;;19.98;98.34
77003;BME280;65939;50.060;14.288;2023-06-22T02:21:08;97531.38;;;19.98;98.50
77003;BME280;65939;50.060;14.288;2023-06-22T02:23:09;97526.06;;;19.98;98.51
77003;BME280;65939;50.060;14.288;2023-06-22T02:25:10;97532.41;;;19.97;98.70
77003;BME280;65939;50.060;14.288;2023-06-22T02:27:10;97531.38;;;19.98;97.43
77003;BME280;65939;50.060;14.288;2023-06-22T02:29:11;97532.19;;;19.99;97.41
77003;BME280;65939;50.060;14.288;2023-06-22T02:31:12;97526.88;;;19.99;97.25
77003;BME280;65939;50.060;14.288;2023-06-22T02:33:13;97529.53;;;19.99;98.00
77003;BME280;65939;50.060;14.288;2023-06-22T02:35:13;97523.44;;;19.98;97.60
77003;BME280;65939;50.060;14.288;2023-06-22T02:37:14;97522.63;;;19.98;97.05
77003;BME280;65939;50.060;14.288;2023-06-22T02:39:24;97522.63;;;19.98;97.29
77003;BME280;65939;50.060;14.288;2023-06-22T02:41:25;97524.47;;;19.97;97.13
77003;BME280;65939;50.060;14.288;2023-06-22T02:43:25;97518.53;;;19.95;97.51
77003;BME280;65939;50.060;14.288;2023-06-22T02:45:26;97521.19;;;19.95;97.16
77003;BME280;65939;50.060;14.288;2023-06-22T02:47:26;97519.56;;;19.94;97.35
77003;BME280;65939;50.060;14.288;2023-06-22T02:49:27;97524.06;;;19.94;96.85
77003;BME280;65939;50.060;14.288;2023-06-22T02:51:28;97520.59;;;19.93;97.42
77003;BME280;65939;50.060;14.288;2023-06-22T02:53:29;97510.00;;;19.93;96.78
77003;BME280;65939;50.060;14.288;2023-06-22T02:55:29;97513.69;;;19.92;96.80
77003;BME280;65939;50.060;14.288;2023-06-22T02:57:31;97511.63;;;19.94;97.02
77003;BME280;65939;50.060;14.288;2023-06-22T02:59:31;97509.78;;;19.95;96.18
77003;BME280;65939;50.060;14.288;2023-06-22T03:01:32;97515.69;;;19.97;96.36
77003;BME280;65939;50.060;14.288;2023-06-22T03:03:38;97519.16;;;19.97;96.19
77003;BME280;65939;50.060;14.288;2023-06-22T03:05:38;97516.28;;;19.99;96.55
77003;BME280;65939;50.060;14.288;2023-06-22T03:07:41;97517.72;;;20.01;96.29
77003;BME280;65939;50.060;14.288;2023-06-22T03:09:42;97520.16;;;20.03;95.29
77003;BME280;65939;50.060;14.288;2023-06-22T03:11:43;97518.31;;;20.03;95.43
77003;BME280;65939;50.060;14.288;2023-06-22T03:13:44;97523.63;;;20.03;95.35
77003;BME280;65939;50.060;14.288;2023-06-22T03:15:47;97526.28;;;20.03;95.46
77003;BME280;65939;50.060;14.288;2023-06-22T03:17:47;97530.53;;;20.04;95.38
77003;BME280;65939;50.060;14.288;2023-06-22T03:19:48;97527.91;;;20.04;94.57
77003;BME280;65939;50.060;14.288;2023-06-22T03:21:48;97533.81;;;20.06;94.29
77003;BME280;65939;50.060;14.288;2023-06-22T03:23:49;97525.88;;;20.06;93.86
77003;BME280;65939;50.060;14.288;2023-06-22T03:25:50;97530.94;;;20.08;93.92
77003;BME280;65939;50.060;14.288;2023-06-22T03:27:51;97536.03;;;20.09;93.80
77003;BME280;65939;50.060;14.288;2023-06-22T03:29:51;97536.84;;;20.10;93.55
77003;BME280;65939;50.060;14.288;2023-06-22T03:31:52;97531.34;;;20.12;93.79
77003;BME280;65939;50.060;14.288;2023-06-22T03:33:53;97533.75;;;20.13;93.51
77003;BME280;65939;50.060;14.288;2023-06-22T03:35:54;97537.84;;;20.16;93.47
77003;BME280;65939;50.060;14.288;2023-06-22T03:37:54;97546.41;;;20.18;93.17
77003;BME280;65939;50.060;14.288;2023-06-22T03:39:55;97545.38;;;20.19;93.24
77003;BME280;65939;50.060;14.288;2023-06-22T03:41:56;97544.97;;;20.22;93.55
77003;BME280;65939;50.060;14.288;2023-06-22T03:43:57;97532.91;;;20.26;92.85
77003;BME280;65939;50.060;14.288;2023-06-22T03:45:57;97530.88;;;20.28;93.66
77003;BME280;65939;50.060;14.288;2023-06-22T03:47:58;97541.88;;;20.31;92.81
77003;BME280;65939;50.060;14.288;2023-06-22T03:49:59;97542.25;;;20.35;92.99
77003;BME280;65939;50.060;14.288;2023-06-22T03:52:00;97541.81;;;20.38;93.29
77003;BME280;65939;50.060;14.288;2023-06-22T03:54:02;97533.44;;;20.41;92.64
77003;BME280;65939;50.060;14.288;2023-06-22T03:56:03;97522.22;;;20.46;92.37
77003;BME280;65939;50.060;14.288;2023-06-22T03:58:04;97518.72;;;20.52;93.06
77003;BME280;65939;50.060;14.288;2023-06-22T04:00:06;97511.75;;;20.58;93.62
77003;BME280;65939;50.060;14.288;2023-06-22T04:02:08;97513.56;;;20.64;93.00
77003;BME280;65939;50.060;14.288;2023-06-22T04:04:09;97502.50;;;20.67;93.71
77003;BME280;65939;50.060;14.288;2023-06-22T04:06:10;97507.38;;;20.70;94.30
77003;BME280;65939;50.060;14.288;2023-06-22T04:08:12;97509.81;;;20.71;94.11
77003;BME280;65939;50.060;14.288;2023-06-22T04:10:13;97507.56;;;20.75;94.28
77003;BME280;65939;50.060;14.288;2023-06-22T04:12:14;97506.53;;;20.76;94.51
77003;BME280;65939;50.060;14.288;2023-06-22T04:14:14;97503.44;;;20.79;94.69
77003;BME280;65939;50.060;14.288;2023-06-22T04:16:15;97503.59;;;20.84;94.48
77003;BME280;65939;50.060;14.288;2023-06-22T04:18:16;97495.81;;;20.89;94.56
77003;BME280;65939;50.060;14.288;2023-06-22T04:20:16;97493.53;;;20.93;94.09
77003;BME280;65939;50.060;14.288;2023-06-22T04:22:17;97501.88;;;20.96;93.90
77003;BME280;65939;50.060;14.288;2023-06-22T04:24:18;97499.38;;;21.01;94.15
77003;BME280;65939;50.060;14.288;2023-06-22T04:26:18;97502.78;;;21.09;93.58
77003;BME280;65939;50.060;14.288;2023-06-22T04:28:21;97498.66;;;21.13;93.35
77003;BME280;65939;50.060;14.288;2023-06-22T04:30:21;97506.81;;;21.18;93.39
77003;BME280;65939;50.060;14.288;2023-06-22T04:32:22;97504.28;;;21.23;93.29
77003;BME280;65939;50.060;14.288;2023-06-22T04:34:23;97521.22;;;21.28;93.00
77003;BME280;65939;50.060;14.288;2023-06-22T04:36:26;97515.47;;;21.32;92.78
77003;BME280;65939;50.060;14.288;2023-06-22T04:38:31;97512.19;;;21.36;92.17
77003;BME280;65939;50.060;14.288;2023-06-22T04:40:34;97517.63;;;21.41;92.37
77003;BME280;65939;50.060;14.288;2023-06-22T04:42:35;97526.34;;;21.48;92.46
77003;BME280;65939;50.060;14.288;2023-06-22T04:44:36;97527.56;;;21.52;92.26
77003;BME280;65939;50.060;14.288;2023-06-22T04:46:37;97526.31;;;21.55;91.51
77003;BME280;65939;50.060;14.288;2023-06-22T04:48:38;97533.63;;;21.60;91.47
77003;BME280;65939;50.060;14.288;2023-06-22T04:50:39;97528.47;;;21.65;92.60
77003;BME280;65939;50.060;14.288;2023-06-22T04:52:40;97535.56;;;21.71;92.58
77003;BME280;65939;50.060;14.288;2023-06-22T04:54:41;97537.53;;;21.75;92.15
77003;BME280;65939;50.060;14.288;2023-06-22T04:56:47;97544.84;;;21.80;92.26
77003;BME280;65939;50.060;14.288;2023-06-22T04:58:56;97545.59;;;21.87;91.97
77003;BME280;65939;50.060;14.288;2023-06-22T05:00:58;97541.00;;;21.94;91.90
77003;BME280;65939;50.060;14.288;2023-06-22T05:02:59;97542.22;;;21.98;91.73
77003;BME280;65939;50.060;14.288;2023-06-22T05:05:02;97543.59;;;22.01;91.56
77003;BME280;65939;50.060;14.288;2023-06-22T05:07:07;97544.41;;;22.02;90.77
77003;BME280;65939;50.060;14.288;2023-06-22T05:09:08;97538.88;;;22.03;90.97
77003;BME280;65939;50.060;14.288;2023-06-22T05:11:08;97543.75;;;22.06;91.03
77003;BME280;65939;50.060;14.288;2023-06-22T05:13:09;97548.81;;;22.14;90.93
77003;BME280;65939;50.060;14.288;2023-06-22T05:15:10;97554.03;;;22.21;90.58
77003;BME280;65939;50.060;14.288;2023-06-22T05:17:11;97554.53;;;22.30;90.44
77003;BME280;65939;50.060;14.288;2023-06-22T05:19:13;97558.28;;;22.40;90.05
77003;BME280;65939;50.060;14.288;2023-06-22T05:21:14;97554.28;;;22.50;90.18
77003;BME280;65939;50.060;14.288;2023-06-22T05:23:15;97551.31;;;22.58;89.83
77003;BME280;65939;50.060;14.288;2023-06-22T05:25:15;97553.19;;;22.69;89.26
77003;BME280;65939;50.060;14.288;2023-06-22T05:27:16;97562.34;;;22.73;89.20
77003;BME280;65939;50.060;14.288;2023-06-22T05:29:17;97559.22;;;22.76;89.42
77003;BME280;65939;50.060;14.288;2023-06-22T05:31:18;97565.06;;;22.85;89.14
77003;BME280;65939;50.060;14.288;2023-06-22T05:33:20;97568.66;;;22.90;89.15
77003;BME280;65939;50.060;14.288;2023-06-22T05:35:20;97576.22;;;22.93;89.49
77003;BME280;65939;50.060;14.288;2023-06-22T05:37:21;97585.63;;;22.96;89.59
77003;BME280;65939;50.060;14.288;2023-06-22T05:39:22;97586.41;;;22.97;89.75
77003;BME280;65939;50.060;14.288;2023-06-22T05:41:22;97590.13;;;22.96;88.84
77003;BME280;65939;50.060;14.288;2023-06-22T05:43:23;97595.56;;;23.01;89.61
77003;BME280;65939;50.060;14.288;2023-06-22T05:45:24;97585.28;;;23.04;89.77
77003;BME280;65939;50.060;14.288;2023-06-22T05:47:24;97587.84;;;23.11;90.17
77003;BME280;65939;50.060;14.288;2023-06-22T05:49:25;97594.34;;;23.15;89.98
77003;BME280;65939;50.060;14.288;2023-06-22T05:51:30;97593.06;;;23.17;90.07
77003;BME280;65939;50.060;14.288;2023-06-22T05:53:30;97584.63;;;23.21;89.84
77003;BME280;65939;50.060;14.288;2023-06-22T05:55:31;97579.19;;;23.27;89.29
77003;BME280;65939;50.060;14.288;2023-06-22T05:57:32;97580.72;;;23.35;88.51
77003;BME280;65939;50.060;14.288;2023-06-22T05:59:33;97585.94;;;23.41;88.25
77003;BME280;65939;50.060;14.288;2023-06-22T06:01:34;97597.06;;;23.50;88.07
77003;BME280;65939;50.060;14.288;2023-06-22T06:03:36;97596.50;;;23.60;88.45
77003;BME280;65939;50.060;14.288;2023-06-22T06:05:41;97588.75;;;23.70;89.01
77003;BME280;65939;50.060;14.288;2023-06-22T06:07:42;97587.34;;;23.79;87.72
77003;BME280;65939;50.060;14.288;2023-06-22T06:09:43;97584.34;;;23.87;86.87
77003;BME280;65939;50.060;14.288;2023-06-22T06:11:44;97586.53;;;23.90;85.79
77003;BME280;65939;50.060;14.288;2023-06-22T06:13:44;97586.88;;;23.94;86.87
77003;BME280;65939;50.060;14.288;2023-06-22T06:15:45;97583.53;;;23.99;87.04
77003;BME280;65939;50.060;14.288;2023-06-22T06:17:48;97589.41;;;24.01;86.43
77003;BME280;65939;50.060;14.288;2023-06-22T06:19:49;97586.28;;;24.04;86.42
77003;BME280;65939;50.060;14.288;2023-06-22T06:21:50;97580.00;;;24.10;86.40
77003;BME280;65939;50.060;14.288;2023-06-22T06:23:50;97590.09;;;24.20;86.41
77003;BME280;65939;50.060;14.288;2023-06-22T06:25:51;97587.31;;;24.26;86.37
77003;BME280;65939;50.060;14.288;2023-06-22T06:27:52;97585.88;;;24.35;85.74
77003;BME280;65939;50.060;14.288;2023-06-22T06:29:54;97587.84;;;24.40;85.08
77003;BME280;65939;50.060;14.288;2023-06-22T06:31:55;97584.72;;;24.43;84.93
77003;BME280;65939;50.060;14.288;2023-06-22T06:33:57;97580.84;;;24.51;84.32
77003;BME280;65939;50.060;14.288;2023-06-22T06:35:57;97572.94;;;24.56;85.52
77003;BME280;65939;50.060;14.288;2023-06-22T06:37:58;97578.50;;;24.66;85.35
77003;BME280;65939;50.060;14.288;2023-06-22T06:39:59;97580.75;;;24.74;84.80
77003;BME280;65939;50.060;14.288;2023-06-22T06:42:00;97579.09;;;24.85;85.73
77003;BME280;65939;50.060;14.288;2023-06-22T06:44:00;97584.69;;;25.00;84.73
77003;BME280;65939;50.060;14.288;2023-06-22T06:46:01;97579.41;;;25.17;83.90
77003;BME280;65939;50.060;14.288;2023-06-22T06:48:03;97579.09;;;25.30;83.64
77003;BME280;65939;50.060;14.288;2023-06-22T06:50:05;97578.44;;;25.40;82.62
77003;BME280;65939;50.060;14.288;2023-06-22T06:52:06;97575.19;;;25.55;82.81
77003;BME280;65939;50.060;14.288;2023-06-22T06:54:07;97576.97;;;25.66;82.03
77003;BME280;65939;50.060;14.288;2023-06-22T06:56:07;97580.94;;;25.81;82.18
77003;BME280;65939;50.060;14.288;2023-06-22T06:58:10;97570.06;;;25.87;80.81
77003;BME280;65939;50.060;14.288;2023-06-22T07:00:13;97572.56;;;25.94;80.57
77003;BME280;65939;50.060;14.288;2023-06-22T07:02:15;97565.66;;;25.98;81.73
77003;BME280;65939;50.060;14.288;2023-06-22T07:04:16;97566.53;;;26.03;81.23
77003;BME280;65939;50.060;14.288;2023-06-22T07:06:17;97555.13;;;26.13;80.56
77003;BME280;65939;50.060;14.288;2023-06-22T07:08:17;97556.88;;;26.24;80.58
77003;BME280;65939;50.060;14.288;2023-06-22T07:10:18;97562.94;;;26.37;80.40
77003;BME280;65939;50.060;14.288;2023-06-22T07:12:19;97555.03;;;26.47;79.01
77003;BME280;65939;50.060;14.288;2023-06-22T07:14:19;97555.66;;;26.54;78.74
77003;BME280;65939;50.060;14.288;2023-06-22T07:16:20;97558.38;;;26.59;78.68
77003;BME280;65939;50.060;14.288;2023-06-22T07:18:21;97561.66;;;26.66;78.69
77003;BME280;65939;50.060;14.288;2023-06-22T07:20:22;97547.81;;;26.74;77.78
77003;BME280;65939;50.060;14.288;2023-06-22T07:22:22;97543.56;;;26.79;77.98
77003;BME280;65939;50.060;14.288;2023-06-22T07:24:24;97538.00;;;26.85;78.93
77003;BME280;65939;50.060;14.288;2023-06-22T07:26:24;97541.78;;;26.89;77.45
77003;BME280;65939;50.060;14.288;2023-06-22T07:28:25;97537.56;;;26.93;77.95
77003;BME280;65939;50.060;14.288;2023-06-22T07:30:26;97536.81;;;27.03;78.80
77003;BME280;65939;50.060;14.288;2023-06-22T07:32:27;97539.03;;;27.11;77.64
77003;BME280;65939;50.060;14.288;2023-06-22T07:34:29;97529.47;;;27.20;77.48
77003;BME280;65939;50.060;14.288;2023-06-22T07:36:30;97534.09;;;27.25;77.71
77003;BME280;65939;50.060;14.288;2023-06-22T07:38:30;97532.22;;;27.31;76.70
77003;BME280;65939;50.060;14.288;2023-06-22T07:40:31;97526.94;;;27.36;75.96
77003;BME280;65939;50.060;14.288;2023-06-22T07:42:32;97523.47;;;27.40;75.22
77003;BME280;65939;50.060;14.288;2023-06-22T07:44:35;97526.13;;;27.40;75.66
77003;BME280;65939;50.060;14.288;2023-06-22T07:46:36;97521.88;;;27.44;76.05
77003;BME280;65939;50.060;14.288;2023-06-22T07:48:37;97522.72;;;27.50;76.27
77003;BME280;65939;50.060;14.288;2023-06-22T07:50:38;97517.38;;;27.55;76.54
77003;BME280;65939;50.060;14.288;2023-06-22T07:52:39;97513.09;;;27.59;75.89
77003;BME280;65939;50.060;14.288;2023-06-22T07:54:39;97514.75;;;27.65;76.74
77003;BME280;65939;50.060;14.288;2023-06-22T07:56:40;97511.03;;;27.72;76.09
77003;BME280;65939;50.060;14.288;2023-06-22T07:58:41;97507.88;;;27.80;76.10
77003;BME280;65939;50.060;14.288;2023-06-22T08:00:42;97501.47;;;27.86;75.59
77003;BME280;65939;50.060;14.288;2023-06-22T08:02:44;97503.09;;;27.87;74.72
77003;BME280;65939;50.060;14.288;2023-06-22T08:04:45;97504.16;;;27.86;74.32
77003;BME280;65939;50.060;14.288;2023-06-22T08:06:46;97504.44;;;27.89;75.95
77003;BME280;65939;50.060;14.288;2023-06-22T08:08:47;97503.13;;;27.97;75.86
77003;BME280;65939;50.060;14.288;2023-06-22T08:10:49;97499.94;;;28.05;75.38
77003;BME280;65939;50.060;14.288;2023-06-22T08:12:50;97506.91;;;28.06;74.26
77003;BME280;65939;50.060;14.288;2023-06-22T08:14:52;97496.47;;;28.10;74.71
77003;BME280;65939;50.060;14.288;2023-06-22T08:16:52;97497.81;;;28.17;74.42
77003;BME280;65939;50.060;14.288;2023-06-22T08:18:53;97494.38;;;28.22;75.06
77003;BME280;65939;50.060;14.288;2023-06-22T08:20:55;97499.22;;;28.25;74.93
77003;BME280;65939;50.060;14.288;2023-06-22T08:22:55;97496.00;;;28.28;75.06
77003;BME280;65939;50.060;14.288;2023-06-22T08:24:58;97487.16;;;28.38;75.29
77003;BME280;65939;50.060;14.288;2023-06-22T08:26:59;97491.22;;;28.51;74.85
77003;BME280;65939;50.060;14.288;2023-06-22T08:28:59;97484.00;;;28.61;75.38
77003;BME280;65939;50.060;14.288;2023-06-22T08:31:02;97493.41;;;28.69;74.65
77003;BME280;65939;50.060;14.288;2023-06-22T08:33:03;97486.69;;;28.72;74.31
77003;BME280;65939;50.060;14.288;2023-06-22T08:35:04;97474.84;;;28.78;73.30
77003;BME280;65939;50.060;14.288;2023-06-22T08:37:08;97476.75;;;28.82;73.29
77003;BME280;65939;50.060;14.288;2023-06-22T08:39:09;97480.22;;;28.88;72.56
77003;BME280;65939;50.060;14.288;2023-06-22T08:41:10;97482.38;;;28.91;72.92
77003;BME280;65939;50.060;14.288;2023-06-22T08:43:11;97475.94;;;28.97;72.46
77003;BME280;65939;50.060;14.288;2023-06-22T08:45:12;97477.59;;;29.03;73.20
77003;BME280;65939;50.060;14.288;2023-06-22T08:47:13;97473.81;;;29.09;72.75
77003;BME280;65939;50.060;14.288;2023-06-22T08:49:14;97474.59;;;29.25;72.61
77003;BME280;65939;50.060;14.288;2023-06-22T08:51:15;97480.22;;;29.39;72.99
77003;BME280;65939;50.060;14.288;2023-06-22T08:53:16;97479.94;;;29.51;73.10
77003;BME280;65939;50.060;14.288;2023-06-22T08:55:16;97479.63;;;29.57;72.09
77003;BME280;65939;50.060;14.288;2023-06-22T08:57:17;97473.19;;;29.58;71.20
77003;BME280;65939;50.060;14.288;2023-06-22T08:59:18;97480.19;;;29.54;71.16
77003;BME280;65939;50.060;14.288;2023-06-22T09:01:18;97474.50;;;29.56;71.89
77003;BME280;65939;50.060;14.288;2023-06-22T09:03:19;97477.50;;;29.59;70.80
77003;BME280;65939;50.060;14.288;2023-06-22T09:05:20;97473.22;;;29.64;70.78
77003;BME280;65939;50.060;14.288;2023-06-22T09:07:22;97479.91;;;29.66;71.16
77003;BME280;65939;50.060;14.288;2023-06-22T09:09:24;97481.25;;;29.69;71.45
77003;BME280;65939;50.060;14.288;2023-06-22T09:11:25;97482.31;;;29.73;72.06
77003;BME280;65939;50.060;14.288;2023-06-22T09:13:25;97480.66;;;29.77;71.52
77003;BME280;65939;50.060;14.288;2023-06-22T09:15:26;97470.66;;;29.88;71.28
77003;BME280;65939;50.060;14.288;2023-06-22T09:17:27;97474.66;;;29.95;70.83
77003;BME280;65939;50.060;14.288;2023-06-22T09:19:28;97475.19;;;30.02;70.98
77003;BME280;65939;50.060;14.288;2023-06-22T09:21:28;97465.75;;;30.05;69.58
77003;BME280;65939;50.060;14.288;2023-06-22T09:23:29;97462.53;;;30.03;70.00
77003;BME280;65939;50.060;14.288;2023-06-22T09:25:30;97457.13;;;30.08;71.24
77003;BME280;65939;50.060;14.288;2023-06-22T09:27:31;97457.13;;;30.08;70.26
77003;BME280;65939;50.060;14.288;2023-06-22T09:29:32;97454.38;;;30.13;70.11
77003;BME280;65939;50.060;14.288;2023-06-22T09:31:34;97455.47;;;30.12;69.73
77003;BME280;65939;50.060;14.288;2023-06-22T09:33:35;97443.59;;;30.13;69.73
77003;BME280;65939;50.060;14.288;2023-06-22T09:35:36;97456.78;;;30.25;70.84
77003;BME280;65939;50.060;14.288;2023-06-22T09:37:37;97452.16;;;30.36;69.50
77003;BME280;65939;50.060;14.288;2023-06-22T09:39:37;97454.53;;;30.42;70.37
77003;BME280;65939;50.060;14.288;2023-06-22T09:41:38;97449.38;;;30.46;68.89
77003;BME280;65939;50.060;14.288;2023-06-22T09:43:39;97455.09;;;30.39;68.05
77003;BME280;65939;50.060;14.288;2023-06-22T09:45:40;97444.13;;;30.20;68.25
77003;BME280;65939;50.060;14.288;2023-06-22T09:47:40;97444.16;;;30.15;69.20
77003;BME280;65939;50.060;14.288;2023-06-22T09:49:41;97450.34;;;30.16;69.04
77003;BME280;65939;50.060;14.288;2023-06-22T09:51:42;97438.75;;;30.20;68.66
77003;BME280;65939;50.060;14.288;2023-06-22T09:53:43;97443.84;;;30.27;69.52
77003;BME280;65939;50.060;14.288;2023-06-22T09:55:44;97436.78;;;30.31;68.02
77003;BME280;65939;50.060;14.288;2023-06-22T09:57:44;97436.78;;;30.31;67.84
77003;BME280;65939;50.060;14.288;2023-06-22T09:59:45;97425.75;;;30.33;67.77
77003;BME280;65939;50.060;14.288;2023-06-22T10:01:46;97429.47;;;30.42;69.43
77003;BME280;65939;50.060;14.288;2023-06-22T10:03:51;97428.31;;;30.53;69.35
77003;BME280;65939;50.060;14.288;2023-06-22T10:05:54;97427.16;;;30.64;67.31
77003;BME280;65939;50.060;14.288;2023-06-22T10:07:55;97423.59;;;30.69;67.26
77003;BME280;65939;50.060;14.288;2023-06-22T10:09:55;97431.66;;;30.74;67.28
77003;BME280;65939;50.060;14.288;2023-06-22T10:11:56;97435.13;;;30.80;66.18
77003;BME280;65939;50.060;14.288;2023-06-22T10:13:57;97427.84;;;30.80;66.62
77003;BME280;65939;50.060;14.288;2023-06-22T10:15:57;97431.41;;;30.75;66.02
77003;BME280;65939;50.060;14.288;2023-06-22T10:17:58;97418.75;;;30.71;65.13
77003;BME280;65939;50.060;14.288;2023-06-22T10:20:00;97427.59;;;30.76;65.83
77003;BME280;65939;50.060;14.288;2023-06-22T10:22:01;97420.75;;;30.89;66.59
77003;BME280;65939;50.060;14.288;2023-06-22T10:24:02;97426.28;;;31.03;66.54
77003;BME280;65939;50.060;14.288;2023-06-22T10:26:06;97427.00;;;31.14;66.08
77003;BME280;65939;50.060;14.288;2023-06-22T10:28:07;97422.06;;;31.21;65.34
77003;BME280;65939;50.060;14.288;2023-06-22T10:30:08;97421.41;;;31.34;66.50
77003;BME280;65939;50.060;14.288;2023-06-22T10:32:09;97421.75;;;31.52;64.88
77003;BME280;65939;50.060;14.288;2023-06-22T10:34:10;97424.06;;;31.63;64.70
77003;BME280;65939;50.060;14.288;2023-06-22T10:36:11;97419.34;;;31.74;65.47
77003;BME280;65939;50.060;14.288;2023-06-22T10:38:11;97422.66;;;31.90;64.87